sensor_id;sensor_type;location;lat;lon;timestamp;P1;durP1;ratioP1;P2;durP2;ratioP2
79212;SDS011;68639;52.380;9.822;2023-06-22T00:02:23;17.38;;;13.68;;
79212;SDS011;68639;52.380;9.822;2023-06-22T00:04:48;16.85;;;14.38;;
79212;SDS011;68639;52.380;9.822;2023-06-22T00:07:13;19.60;;;13.52;;
79212;SDS011;68639;52.380;9.822;2023-06-22T00:09:39;17.15;;;14.13;;
79212;SDS011;68639;52.380;9.822;2023-06-22T00:12:04;16.73;;;14.60;;
79212;SDS011;68639;52.380;9.822;2023-06-22T00:14:29;18.42;;;14.40;;
79212;SDS011;68639;52.380;9.822;2023-06-22T00:16:55;16.88;;;15.00;;
79212;SDS011;68639;52.380;9.822;2023-06-22T00:19:22;21.98;;;14.90;;
79212;SDS011;68639;52.380;9.822;2023-06-22T00:21:47;16.52;;;14.43;;
79212;SDS011;68639;52.380;9.822;2023-06-22T00:24:17;19.95;;;14.63;;
79212;SDS011;68639;52.380;9.822;2023-06-22T00:26:42;18.58;;;14.50;;
79212;SDS011;68639;52.380;9.822;2023-06-22T00:29:08;17.27;;;14.73;;
79212;SDS011;68639;52.380;9.822;2023-06-22T00:31:33;16.92;;;14.57;;
79212;SDS011;68639;52.380;9.822;2023-06-22T00:33:58;18.05;;;14.07;;
79212;SDS011;68639;52.380;9.822;2023-06-22T00:36:23;20.77;;;14.60;;
79212;SDS011;68639;52.380;9.822;2023-06-22T00:38:49;16.23;;;14.55;;
79212;SDS011;68639;52.380;9.822;2023-06-22T00:41:15;16.17;;;14.50;;
79212;SDS011;68639;52.380;9.822;2023-06-22T00:43:41;17.90;;;15.00;;
79212;SDS011;68639;52.380;9.822;2023-06-22T00:46:07;18.15;;;14.73;;
79212;SDS011;68639;52.380;9.822;2023-06-22T00:48:32;17.73;;;15.80;;
79212;SDS011;68639;52.380;9.822;2023-06-22T00:50:58;17.77;;;15.32;;
79212;SDS011;68639;52.380;9.822;2023-06-22T00:53:23;16.40;;;14.70;;
79212;SDS011;68639;52.380;9.822;2023-06-22T00:55:48;16.30;;;14.43;;
79212;SDS011;68639;52.380;9.822;2023-06-22T00:58:16;18.20;;;14.80;;
79212;SDS011;68639;52.380;9.822;2023-06-22T01:00:42;17.90;;;14.95;;
79212;SDS011;68639;52.380;9.822;2023-06-22T01:03:07;15.93;;;14.25;;
79212;SDS011;68639;52.380;9.822;2023-06-22T01:05:36;16.75;;;15.05;;
79212;SDS011;68639;52.380;9.822;2023-06-22T01:16:16;17.03;;;14.90;;
79212;SDS011;68639;52.380;9.822;2023-06-22T01:18:42;17.50;;;15.63;;
79212;SDS011;68639;52.380;9.822;2023-06-22T01:21:09;20.48;;;14.95;;
79212;SDS011;68639;52.380;9.822;2023-06-22T01:23:40;19.23;;;14.57;;
79212;SDS011;68639;52.380;9.822;2023-06-22T01:28:53;16.30;;;14.60;;
79212;SDS011;68639;52.380;9.822;2023-06-22T01:31:20;16.83;;;15.05;;
79212;SDS011;68639;52.380;9.822;2023-06-22T01:33:49;17.13;;;15.20;;
79212;SDS011;68639;52.380;9.822;2023-06-22T01:36:14;17.00;;;14.90;;
79212;SDS011;68639;52.380;9.822;2023-06-22T01:38:41;17.92;;;15.18;;
79212;SDS011;68639;52.380;9.822;2023-06-22T01:41:07;17.15;;;15.35;;
79212;SDS011;68639;52.380;9.822;2023-06-22T01:43:32;18.30;;;15.60;;
79212;SDS011;68639;52.380;9.822;2023-06-22T01:46:00;15.90;;;14.13;;
79212;SDS011;68639;52.380;9.822;2023-06-22T01:48:26;18.50;;;14.88;;
79212;SDS011;68639;52.380;9.822;2023-06-22T01:50:52;16.15;;;14.45;;
79212;SDS011;68639;52.380;9.822;2023-06-22T01:53:18;16.17;;;14.27;;
79212;SDS011;68639;52.380;9.822;2023-06-22T01:55:43;16.23;;;13.88;;
79212;SDS011;68639;52.380;9.822;2023-06-22T01:58:08;16.00;;;14.30;;
79212;SDS011;68639;52.380;9.822;2023-06-22T02:00:35;15.30;;;13.70;;
79212;SDS011;68639;52.380;9.822;2023-06-22T02:05:36;16.08;;;14.13;;
79212;SDS011;68639;52.380;9.822;2023-06-22T02:08:07;14.48;;;12.98;;
79212;SDS011;68639;52.380;9.822;2023-06-22T02:10:34;15.50;;;13.30;;
79212;SDS011;68639;52.380;9.822;2023-06-22T02:13:00;14.70;;;13.07;;
79212;SDS011;68639;52.380;9.822;2023-06-22T02:15:26;17.88;;;12.43;;
79212;SDS011;68639;52.380;9.822;2023-06-22T02:17:51;13.90;;;12.48;;
79212;SDS011;68639;52.380;9.822;2023-06-22T02:20:16;15.30;;;13.02;;
79212;SDS011;68639;52.380;9.822;2023-06-22T02:22:42;14.13;;;12.63;;
79212;SDS011;68639;52.380;9.822;2023-06-22T02:25:07;13.82;;;12.43;;
79212;SDS011;68639;52.380;9.822;2023-06-22T02:27:32;14.88;;;11.77;;
79212;SDS011;68639;52.380;9.822;2023-06-22T02:29:57;14.05;;;12.30;;
79212;SDS011;68639;52.380;9.822;2023-06-22T02:32:23;15.65;;;12.20;;
79212;SDS011;68639;52.380;9.822;2023-06-22T02:34:48;16.58;;;12.63;;
79212;SDS011;68639;52.380;9.822;2023-06-22T02:37:13;15.57;;;13.05;;
79212;SDS011;68639;52.380;9.822;2023-06-22T02:39:39;13.63;;;12.10;;
79212;SDS011;68639;52.380;9.822;2023-06-22T02:42:05;14.35;;;11.60;;
79212;SDS011;68639;52.380;9.822;2023-06-22T02:44:30;13.68;;;12.27;;
79212;SDS011;68639;52.380;9.822;2023-06-22T02:46:56;14.90;;;13.07;;
79212;SDS011;68639;52.380;9.822;2023-06-22T02:49:21;13.75;;;12.27;;
79212;SDS011;68639;52.380;9.822;2023-06-22T02:51:46;13.95;;;11.25;;
79212;SDS011;68639;52.380;9.822;2023-06-22T02:54:12;14.20;;;12.32;;
79212;SDS011;68639;52.380;9.822;2023-06-22T02:56:37;14.48;;;12.93;;
79212;SDS011;68639;52.380;9.822;2023-06-22T02:59:02;14.25;;;12.05;;
79212;SDS011;68639;52.380;9.822;2023-06-22T03:01:28;13.38;;;11.75;;
79212;SDS011;68639;52.380;9.822;2023-06-22T03:03:55;13.52;;;12.02;;
79212;SDS011;68639;52.380;9.822;2023-06-22T03:06:20;15.60;;;13.15;;
79212;SDS011;68639;52.380;9.822;2023-06-22T03:08:48;14.85;;;13.25;;
79212;SDS011;68639;52.380;9.822;2023-06-22T03:11:13;14.55;;;13.05;;
79212;SDS011;68639;52.380;9.822;2023-06-22T03:13:39;15.88;;;13.18;;
79212;SDS011;68639;52.380;9.822;2023-06-22T03:16:04;18.05;;;12.68;;
79212;SDS011;68639;52.380;9.822;2023-06-22T03:18:29;14.25;;;12.75;;
79212;SDS011;68639;52.380;9.822;2023-06-22T03:20:54;14.10;;;12.63;;
79212;SDS011;68639;52.380;9.822;2023-06-22T03:23:19;15.18;;;12.85;;
79212;SDS011;68639;52.380;9.822;2023-06-22T03:25:45;15.15;;;12.77;;
79212;SDS011;68639;52.380;9.822;2023-06-22T03:28:10;16.33;;;12.30;;
79212;SDS011;68639;52.380;9.822;2023-06-22T03:30:35;14.48;;;12.13;;
79212;SDS011;68639;52.380;9.822;2023-06-22T03:33:00;14.35;;;12.45;;
79212;SDS011;68639;52.380;9.822;2023-06-22T03:35:26;14.15;;;12.75;;
79212;SDS011;68639;52.380;9.822;2023-06-22T03:37:51;16.42;;;12.27;;
79212;SDS011;68639;52.380;9.822;2023-06-22T03:40:16;14.27;;;12.77;;
79212;SDS011;68639;52.380;9.822;2023-06-22T03:42:41;14.45;;;12.85;;
79212;SDS011;68639;52.380;9.822;2023-06-22T03:45:07;18.83;;;12.93;;
79212;SDS011;68639;52.380;9.822;2023-06-22T03:47:32;18.30;;;13.13;;
79212;SDS011;68639;52.380;9.822;2023-06-22T03:49:57;16.50;;;13.70;;
79212;SDS011;68639;52.380;9.822;2023-06-22T03:52:22;21.15;;;13.73;;
79212;SDS011;68639;52.380;9.822;2023-06-22T03:54:48;14.40;;;12.70;;
79212;SDS011;68639;52.380;9.822;2023-06-22T03:57:13;17.67;;;12.77;;
79212;SDS011;68639;52.380;9.822;2023-06-22T03:59:38;17.60;;;12.90;;
79212;SDS011;68639;52.380;9.822;2023-06-22T04:02:03;14.60;;;12.60;;
79212;SDS011;68639;52.380;9.822;2023-06-22T04:04:29;17.40;;;12.80;;
79212;SDS011;68639;52.380;9.822;2023-06-22T04:06:54;17.42;;;11.93;;
79212;SDS011;68639;52.380;9.822;2023-06-22T04:09:19;14.80;;;11.50;;
79212;SDS011;68639;52.380;9.822;2023-06-22T04:11:46;15.73;;;12.40;;
79212;SDS011;68639;52.380;9.822;2023-06-22T04:14:11;14.73;;;12.15;;
79212;SDS011;68639;52.380;9.822;2023-06-22T04:16:36;15.15;;;11.43;;
79212;SDS011;68639;52.380;9.822;2023-06-22T04:19:02;21.75;;;11.48;;
79212;SDS011;68639;52.380;9.822;2023-06-22T04:21:27;29.15;;;11.75;;
79212;SDS011;68639;52.380;9.822;2023-06-22T04:23:52;20.00;;;11.98;;
79212;SDS011;68639;52.380;9.822;2023-06-22T04:26:17;28.95;;;11.98;;
79212;SDS011;68639;52.380;9.822;2023-06-22T04:28:45;24.95;;;10.75;;
79212;SDS011;68639;52.380;9.822;2023-06-22T04:31:16;20.02;;;10.98;;
79212;SDS011;68639;52.380;9.822;2023-06-22T04:33:41;15.75;;;10.82;;
79212;SDS011;68639;52.380;9.822;2023-06-22T04:36:07;12.33;;;10.30;;
79212;SDS011;68639;52.380;9.822;2023-06-22T04:38:32;13.40;;;10.68;;
79212;SDS011;68639;52.380;9.822;2023-06-22T04:41:00;12.07;;;10.55;;
79212;SDS011;68639;52.380;9.822;2023-06-22T04:43:27;12.65;;;9.77;;
79212;SDS011;68639;52.380;9.822;2023-06-22T04:45:55;12.98;;;9.95;;
79212;SDS011;68639;52.380;9.822;2023-06-22T04:48:20;13.98;;;9.93;;
79212;SDS011;68639;52.380;9.822;2023-06-22T04:50:45;11.90;;;9.95;;
79212;SDS011;68639;52.380;9.822;2023-06-22T04:53:11;12.07;;;9.65;;
79212;SDS011;68639;52.380;9.822;2023-06-22T04:55:37;12.80;;;10.30;;
79212;SDS011;68639;52.380;9.822;2023-06-22T04:58:06;14.07;;;10.02;;
79212;SDS011;68639;52.380;9.822;2023-06-22T05:00:31;20.90;;;10.70;;
79212;SDS011;68639;52.380;9.822;2023-06-22T05:02:56;20.17;;;9.98;;
79212;SDS011;68639;52.380;9.822;2023-06-22T05:05:23;16.27;;;9.70;;
79212;SDS011;68639;52.380;9.822;2023-06-22T05:07:49;24.92;;;9.75;;
79212;SDS011;68639;52.380;9.822;2023-06-22T05:10:19;20.63;;;9.68;;
79212;SDS011;68639;52.380;9.822;2023-06-22T05:12:44;20.20;;;9.90;;
79212;SDS011;68639;52.380;9.822;2023-06-22T05:15:09;22.50;;;9.45;;
79212;SDS011;68639;52.380;9.822;2023-06-22T05:17:35;19.15;;;9.68;;
79212;SDS011;68639;52.380;9.822;2023-06-22T05:20:01;18.58;;;8.52;;
79212;SDS011;68639;52.380;9.822;2023-06-22T05:22:26;24.67;;;9.10;;
79212;SDS011;68639;52.380;9.822;2023-06-22T05:24:51;19.50;;;8.67;;
79212;SDS011;68639;52.380;9.822;2023-06-22T05:27:17;22.52;;;9.07;;
79212;SDS011;68639;52.380;9.822;2023-06-22T05:29:42;18.30;;;8.73;;
79212;SDS011;68639;52.380;9.822;2023-06-22T05:32:07;21.00;;;8.35;;
79212;SDS011;68639;52.380;9.822;2023-06-22T05:34:33;18.73;;;8.77;;
79212;SDS011;68639;52.380;9.822;2023-06-22T05:36:58;27.20;;;9.50;;
79212;SDS011;68639;52.380;9.822;2023-06-22T05:39:26;22.48;;;9.18;;
79212;SDS011;68639;52.380;9.822;2023-06-22T05:41:51;20.65;;;9.32;;
79212;SDS011;68639;52.380;9.822;2023-06-22T05:44:17;19.55;;;8.25;;
79212;SDS011;68639;52.380;9.822;2023-06-22T05:46:43;19.33;;;8.77;;
79212;SDS011;68639;52.380;9.822;2023-06-22T05:49:14;28.05;;;9.40;;
79212;SDS011;68639;52.380;9.822;2023-06-22T05:51:40;26.98;;;8.25;;
79212;SDS011;68639;52.380;9.822;2023-06-22T05:54:05;26.40;;;8.07;;
79212;SDS011;68639;52.380;9.822;2023-06-22T05:56:31;25.55;;;9.70;;
79212;SDS011;68639;52.380;9.822;2023-06-22T05:58:56;19.37;;;7.70;;
79212;SDS011;68639;52.380;9.822;2023-06-22T06:01:21;23.10;;;7.75;;
79212;SDS011;68639;52.380;9.822;2023-06-22T06:03:46;17.90;;;7.22;;
79212;SDS011;68639;52.380;9.822;2023-06-22T06:06:12;19.42;;;7.90;;
79212;SDS011;68639;52.380;9.822;2023-06-22T06:08:38;24.75;;;8.02;;
79212;SDS011;68639;52.380;9.822;2023-06-22T06:11:03;16.85;;;6.80;;
79212;SDS011;68639;52.380;9.822;2023-06-22T06:13:28;15.18;;;6.75;;
79212;SDS011;68639;52.380;9.822;2023-06-22T06:15:53;22.27;;;7.78;;
79212;SDS011;68639;52.380;9.822;2023-06-22T06:18:20;23.10;;;7.47;;
79212;SDS011;68639;52.380;9.822;2023-06-22T06:20:45;15.65;;;7.70;;
79212;SDS011;68639;52.380;9.822;2023-06-22T06:23:10;19.90;;;7.68;;
79212;SDS011;68639;52.380;9.822;2023-06-22T06:25:35;24.58;;;7.85;;
79212;SDS011;68639;52.380;9.822;2023-06-22T06:28:01;22.40;;;7.53;;
79212;SDS011;68639;52.380;9.822;2023-06-22T06:30:26;15.90;;;7.55;;
79212;SDS011;68639;52.380;9.822;2023-06-22T06:32:51;19.92;;;7.55;;
79212;SDS011;68639;52.380;9.822;2023-06-22T06:35:17;20.15;;;7.78;;
79212;SDS011;68639;52.380;9.822;2023-06-22T06:37:43;15.07;;;6.95;;
79212;SDS011;68639;52.380;9.822;2023-06-22T06:40:09;22.85;;;7.60;;
79212;SDS011;68639;52.380;9.822;2023-06-22T06:42:44;13.82;;;7.18;;
79212;SDS011;68639;52.380;9.822;2023-06-22T06:45:14;13.52;;;6.55;;
79212;SDS011;68639;52.380;9.822;2023-06-22T06:47:40;16.15;;;6.88;;
79212;SDS011;68639;52.380;9.822;2023-06-22T06:50:05;12.10;;;7.25;;
79212;SDS011;68639;52.380;9.822;2023-06-22T06:52:31;17.08;;;7.10;;
79212;SDS011;68639;52.380;9.822;2023-06-22T06:54:56;18.98;;;6.80;;
79212;SDS011;68639;52.380;9.822;2023-06-22T06:57:21;22.40;;;6.90;;
79212;SDS011;68639;52.380;9.822;2023-06-22T06:59:47;16.98;;;6.88;;
79212;SDS011;68639;52.380;9.822;2023-06-22T07:02:12;14.82;;;6.50;;
79212;SDS011;68639;52.380;9.822;2023-06-22T07:04:39;16.83;;;6.10;;
79212;SDS011;68639;52.380;9.822;2023-06-22T07:07:04;12.27;;;6.40;;
79212;SDS011;68639;52.380;9.822;2023-06-22T07:09:30;12.90;;;5.95;;
79212;SDS011;68639;52.380;9.822;2023-06-22T07:11:55;16.90;;;6.63;;
79212;SDS011;68639;52.380;9.822;2023-06-22T07:14:20;12.53;;;6.57;;
79212;SDS011;68639;52.380;9.822;2023-06-22T07:16:46;13.05;;;6.15;;
79212;SDS011;68639;52.380;9.822;2023-06-22T07:19:11;17.77;;;6.47;;
79212;SDS011;68639;52.380;9.822;2023-06-22T07:21:36;14.35;;;6.20;;
79212;SDS011;68639;52.380;9.822;2023-06-22T07:24:02;11.32;;;6.43;;
79212;SDS011;68639;52.380;9.822;2023-06-22T07:26:27;11.38;;;5.78;;
79212;SDS011;68639;52.380;9.822;2023-06-22T07:28:52;14.52;;;5.47;;
79212;SDS011;68639;52.380;9.822;2023-06-22T07:31:17;13.63;;;5.40;;
79212;SDS011;68639;52.380;9.822;2023-06-22T07:33:43;12.85;;;5.03;;
79212;SDS011;68639;52.380;9.822;2023-06-22T07:36:08;10.07;;;5.32;;
79212;SDS011;68639;52.380;9.822;2023-06-22T07:38:33;9.52;;;5.38;;
79212;SDS011;68639;52.380;9.822;2023-06-22T07:40:59;9.70;;;5.20;;
79212;SDS011;68639;52.380;9.822;2023-06-22T07:43:25;10.40;;;5.32;;
79212;SDS011;68639;52.380;9.822;2023-06-22T07:45:50;11.17;;;5.20;;
79212;SDS011;68639;52.380;9.822;2023-06-22T07:48:22;13.35;;;4.97;;
79212;SDS011;68639;52.380;9.822;2023-06-22T07:50:47;9.10;;;5.53;;
79212;SDS011;68639;52.380;9.822;2023-06-22T07:53:13;8.13;;;5.47;;
79212;SDS011;68639;52.380;9.822;2023-06-22T07:55:38;12.63;;;4.90;;
79212;SDS011;68639;52.380;9.822;2023-06-22T07:58:03;18.37;;;5.33;;
79212;SDS011;68639;52.380;9.822;2023-06-22T08:00:28;12.00;;;5.70;;
79212;SDS011;68639;52.380;9.822;2023-06-22T08:02:54;11.82;;;5.28;;
79212;SDS011;68639;52.380;9.822;2023-06-22T08:05:19;13.57;;;5.40;;
79212;SDS011;68639;52.380;9.822;2023-06-22T08:07:44;15.13;;;5.55;;
79212;SDS011;68639;52.380;9.822;2023-06-22T08:10:10;10.68;;;5.05;;
79212;SDS011;68639;52.380;9.822;2023-06-22T08:12:35;15.80;;;5.25;;
79212;SDS011;68639;52.380;9.822;2023-06-22T08:15:00;8.17;;;5.77;;
79212;SDS011;68639;52.380;9.822;2023-06-22T08:17:26;6.78;;;5.20;;
79212;SDS011;68639;52.380;9.822;2023-06-22T08:19:51;8.60;;;5.83;;
79212;SDS011;68639;52.380;9.822;2023-06-22T08:22:16;9.13;;;5.83;;
79212;SDS011;68639;52.380;9.822;2023-06-22T08:24:42;14.52;;;6.15;;
79212;SDS011;68639;52.380;9.822;2023-06-22T08:27:07;13.60;;;5.70;;
79212;SDS011;68639;52.380;9.822;2023-06-22T08:29:34;11.82;;;6.43;;
79212;SDS011;68639;52.380;9.822;2023-06-22T08:32:00;11.27;;;6.80;;
79212;SDS011;68639;52.380;9.822;2023-06-22T08:34:25;11.90;;;6.75;;
79212;SDS011;68639;52.380;9.822;2023-06-22T08:36:52;14.57;;;6.65;;
79212;SDS011;68639;52.380;9.822;2023-06-22T08:39:18;8.77;;;6.00;;
79212;SDS011;68639;52.380;9.822;2023-06-22T08:41:44;10.35;;;7.30;;
79212;SDS011;68639;52.380;9.822;2023-06-22T08:44:10;12.00;;;6.57;;
79212;SDS011;68639;52.380;9.822;2023-06-22T08:46:35;9.98;;;6.90;;
79212;SDS011;68639;52.380;9.822;2023-06-22T08:49:00;10.60;;;6.90;;
79212;SDS011;68639;52.380;9.822;2023-06-22T08:51:26;10.05;;;7.45;;
79212;SDS011;68639;52.380;9.822;2023-06-22T08:53:51;9.85;;;7.40;;
79212;SDS011;68639;52.380;9.822;2023-06-22T08:56:16;8.73;;;6.72;;
79212;SDS011;68639;52.380;9.822;2023-06-22T08:58:41;11.57;;;7.47;;
79212;SDS011;68639;52.380;9.822;2023-06-22T09:01:07;18.27;;;7.87;;
79212;SDS011;68639;52.380;9.822;2023-06-22T09:03:32;12.07;;;7.70;;
79212;SDS011;68639;52.380;9.822;2023-06-22T09:05:58;10.40;;;7.70;;
79212;SDS011;68639;52.380;9.822;2023-06-22T09:08:23;12.75;;;8.35;;
79212;SDS011;68639;52.380;9.822;2023-06-22T09:10:48;13.77;;;9.33;;
79212;SDS011;68639;52.380;9.822;2023-06-22T09:13:13;13.50;;;8.00;;
79212;SDS011;68639;52.380;9.822;2023-06-22T09:15:38;15.25;;;8.90;;
79212;SDS011;68639;52.380;9.822;2023-06-22T09:18:04;14.65;;;9.43;;
79212;SDS011;68639;52.380;9.822;2023-06-22T09:20:29;13.80;;;8.23;;
79212;SDS011;68639;52.380;9.822;2023-06-22T09:22:54;18.20;;;8.60;;
79212;SDS011;68639;52.380;9.822;2023-06-22T09:25:19;13.02;;;8.25;;
79212;SDS011;68639;52.380;9.822;2023-06-22T09:27:45;14.65;;;9.25;;
79212;SDS011;68639;52.380;9.822;2023-06-22T09:30:11;13.05;;;8.68;;
79212;SDS011;68639;52.380;9.822;2023-06-22T09:32:36;12.00;;;8.10;;
79212;SDS011;68639;52.380;9.822;2023-06-22T09:35:03;11.32;;;8.73;;
79212;SDS011;68639;52.380;9.822;2023-06-22T09:37:30;17.40;;;9.52;;
79212;SDS011;68639;52.380;9.822;2023-06-22T09:39:56;15.95;;;10.18;;
79212;SDS011;68639;52.380;9.822;2023-06-22T09:42:21;11.17;;;8.60;;
79212;SDS011;68639;52.380;9.822;2023-06-22T09:44:46;14.10;;;9.30;;
79212;SDS011;68639;52.380;9.822;2023-06-22T09:47:11;13.30;;;8.30;;
79212;SDS011;68639;52.380;9.822;2023-06-22T09:49:36;13.30;;;8.67;;
79212;SDS011;68639;52.380;9.822;2023-06-22T09:52:02;13.90;;;9.00;;
79212;SDS011;68639;52.380;9.822;2023-06-22T09:54:27;15.95;;;8.95;;
79212;SDS011;68639;52.380;9.822;2023-06-22T09:56:52;12.43;;;8.47;;
79212;SDS011;68639;52.380;9.822;2023-06-22T09:59:17;11.73;;;8.37;;
79212;SDS011;68639;52.380;9.822;2023-06-22T10:01:43;14.82;;;8.13;;
79212;SDS011;68639;52.380;9.822;2023-06-22T10:04:08;20.00;;;9.57;;
79212;SDS011;68639;52.380;9.822;2023-06-22T10:06:33;16.37;;;9.17;;
79212;SDS011;68639;52.380;9.822;2023-06-22T10:08:58;15.38;;;9.35;;
79212;SDS011;68639;52.380;9.822;2023-06-22T10:11:23;13.27;;;9.38;;
79212;SDS011;68639;52.380;9.822;2023-06-22T10:13:54;16.15;;;9.82;;
79212;SDS011;68639;52.380;9.822;2023-06-22T10:16:19;12.15;;;9.45;;
79212;SDS011;68639;52.380;9.822;2023-06-22T10:18:44;14.77;;;9.23;;
79212;SDS011;68639;52.380;9.822;2023-06-22T10:21:09;10.97;;;8.80;;
79212;SDS011;68639;52.380;9.822;2023-06-22T10:23:34;16.37;;;8.30;;
79212;SDS011;68639;52.380;9.822;2023-06-22T10:26:00;15.50;;;8.00;;
79212;SDS011;68639;52.380;9.822;2023-06-22T10:28:25;13.53;;;9.70;;
79212;SDS011;68639;52.380;9.822;2023-06-22T10:30:50;12.10;;;9.10;;
79212;SDS011;68639;52.380;9.822;2023-06-22T10:33:15;13.67;;;9.10;;
79212;SDS011;68639;52.380;9.822;2023-06-22T10:35:40;13.02;;;8.82;;
79212;SDS011;68639;52.380;9.822;2023-06-22T10:38:06;14.10;;;8.87;;
79212;SDS011;68639;52.380;9.822;2023-06-22T10:40:31;16.63;;;9.10;;
79212;SDS011;68639;52.380;9.822;2023-06-22T10:42:57;19.55;;;9.38;;
79212;SDS011;68639;52.380;9.822;2023-06-22T10:45:22;15.88;;;9.85;;
79212;SDS011;68639;52.380;9.822;2023-06-22T10:47:47;19.37;;;10.57;;
79212;SDS011;68639;52.380;9.822;2023-06-22T10:50:13;12.80;;;8.90;;
79212;SDS011;68639;52.380;9.822;2023-06-22T10:52:38;10.75;;;8.60;;
79212;SDS011;68639;52.380;9.822;2023-06-22T10:55:03;14.07;;;9.57;;
79212;SDS011;68639;52.380;9.822;2023-06-22T10:57:29;16.52;;;9.20;;
79212;SDS011;68639;52.380;9.822;2023-06-22T10:59:54;19.38;;;9.10;;
79212;SDS011;68639;52.380;9.822;2023-06-22T11:02:19;15.50;;;9.80;;
79212;SDS011;68639;52.380;9.822;2023-06-22T11:04:44;12.68;;;9.40;;
79212;SDS011;68639;52.380;9.822;2023-06-22T11:07:11;13.30;;;8.82;;
79212;SDS011;68639;52.380;9.822;2023-06-22T11:09:36;13.45;;;8.80;;
79212;SDS011;68639;52.380;9.822;2023-06-22T11:12:03;14.55;;;9.10;;
79212;SDS011;68639;52.380;9.822;2023-06-22T11:14:29;12.35;;;9.30;;
79212;SDS011;68639;52.380;9.822;2023-06-22T11:16:54;12.70;;;8.83;;
79212;SDS011;68639;52.380;9.822;2023-06-22T11:19:19;14.02;;;9.73;;
79212;SDS011;68639;52.380;9.822;2023-06-22T11:21:45;12.05;;;9.20;;
79212;SDS011;68639;52.380;9.822;2023-06-22T11:24:10;16.38;;;9.60;;
79212;SDS011;68639;52.380;9.822;2023-06-22T11:26:35;14.40;;;8.77;;
79212;SDS011;68639;52.380;9.822;2023-06-22T11:29:02;13.43;;;9.63;;
79212;SDS011;68639;52.380;9.822;2023-06-22T11:31:30;14.18;;;9.68;;
79212;SDS011;68639;52.380;9.822;2023-06-22T11:33:55;13.88;;;9.48;;
79212;SDS011;68639;52.380;9.822;2023-06-22T11:36:20;11.27;;;9.15;;
79212;SDS011;68639;52.380;9.822;2023-06-22T11:38:46;15.40;;;8.90;;
79212;SDS011;68639;52.380;9.822;2023-06-22T11:41:11;13.90;;;8.73;;
79212;SDS011;68639;52.380;9.822;2023-06-22T11:43:36;16.43;;;9.13;;
79212;SDS011;68639;52.380;9.822;2023-06-22T11:46:05;14.23;;;8.70;;
79212;SDS011;68639;52.380;9.822;2023-06-22T11:48:30;21.48;;;9.32;;
79212;SDS011;68639;52.380;9.822;2023-06-22T11:50:55;16.33;;;8.60;;
79212;SDS011;68639;52.380;9.822;2023-06-22T11:53:21;13.32;;;8.77;;
79212;SDS011;68639;52.380;9.822;2023-06-22T11:55:46;10.88;;;8.40;;
79212;SDS011;68639;52.380;9.822;2023-06-22T11:58:12;14.05;;;9.80;;
79212;SDS011;68639;52.380;9.822;2023-06-22T12:00:37;11.47;;;8.03;;
79212;SDS011;68639;52.380;9.822;2023-06-22T12:03:02;9.87;;;8.10;;
79212;SDS011;68639;52.380;9.822;2023-06-22T12:05:27;13.17;;;8.53;;
79212;SDS011;68639;52.380;9.822;2023-06-22T12:07:53;12.50;;;8.70;;
79212;SDS011;68639;52.380;9.822;2023-06-22T12:10:19;13.30;;;8.02;;
79212;SDS011;68639;52.380;9.822;2023-06-22T12:12:44;12.13;;;8.33;;
79212;SDS011;68639;52.380;9.822;2023-06-22T12:15:09;13.17;;;8.67;;
79212;SDS011;68639;52.380;9.822;2023-06-22T12:17:35;11.63;;;8.23;;
79212;SDS011;68639;52.380;9.822;2023-06-22T12:20:00;14.27;;;7.97;;
79212;SDS011;68639;52.380;9.822;2023-06-22T12:22:26;13.10;;;9.30;;
79212;SDS011;68639;52.380;9.822;2023-06-22T12:24:51;11.80;;;8.65;;
79212;SDS011;68639;52.380;9.822;2023-06-22T12:27:17;11.25;;;8.30;;
79212;SDS011;68639;52.380;9.822;2023-06-22T12:29:43;11.57;;;8.60;;
79212;SDS011;68639;52.380;9.822;2023-06-22T12:32:08;14.13;;;9.40;;
79212;SDS011;68639;52.380;9.822;2023-06-22T12:34:33;11.40;;;9.27;;
79212;SDS011;68639;52.380;9.822;2023-06-22T12:36:58;14.23;;;8.63;;
79212;SDS011;68639;52.380;9.822;2023-06-22T12:39:24;12.25;;;8.68;;
79212;SDS011;68639;52.380;9.822;2023-06-22T12:41:49;14.20;;;8.93;;
79212;SDS011;68639;52.380;9.822;2023-06-22T12:44:14;13.53;;;8.13;;
79212;SDS011;68639;52.380;9.822;2023-06-22T12:46:39;14.70;;;8.47;;
79212;SDS011;68639;52.380;9.822;2023-06-22T12:49:05;11.38;;;8.85;;
79212;SDS011;68639;52.380;9.822;2023-06-22T12:51:30;13.75;;;10.23;;
79212;SDS011;68639;52.380;9.822;2023-06-22T12:53:55;14.23;;;9.75;;
79212;SDS011;68639;52.380;9.822;2023-06-22T12:56:21;10.43;;;8.38;;
79212;SDS011;68639;52.380;9.822;2023-06-22T12:58:46;10.07;;;8.48;;
79212;SDS011;68639;52.380;9.822;2023-06-22T13:01:11;16.13;;;8.63;;
79212;SDS011;68639;52.380;9.822;2023-06-22T13:03:37;10.88;;;8.77;;
79212;SDS011;68639;52.380;9.822;2023-06-22T13:06:02;10.93;;;8.93;;
79212;SDS011;68639;52.380;9.822;2023-06-22T13:08:28;12.32;;;8.43;;
79212;SDS011;68639;52.380;9.822;2023-06-22T13:10:54;12.60;;;7.65;;
79212;SDS011;68639;52.380;9.822;2023-06-22T13:13:19;13.70;;;8.43;;
79212;SDS011;68639;52.380;9.822;2023-06-22T13:15:44;13.95;;;8.90;;
79212;SDS011;68639;52.380;9.822;2023-06-22T13:18:09;12.27;;;9.02;;
79212;SDS011;68639;52.380;9.822;2023-06-22T13:20:35;15.57;;;8.97;;
79212;SDS011;68639;52.380;9.822;2023-06-22T13:23:00;13.43;;;9.87;;
79212;SDS011;68639;52.380;9.822;2023-06-22T13:25:25;12.80;;;8.53;;
79212;SDS011;68639;52.380;9.822;2023-06-22T13:27:51;14.35;;;9.18;;
79212;SDS011;68639;52.380;9.822;2023-06-22T13:30:16;12.80;;;8.95;;
79212;SDS011;68639;52.380;9.822;2023-06-22T13:32:42;19.55;;;9.65;;
79212;SDS011;68639;52.380;9.822;2023-06-22T13:35:10;16.90;;;9.10;;
79212;SDS011;68639;52.380;9.822;2023-06-22T13:37:36;14.23;;;9.48;;
79212;SDS011;68639;52.380;9.822;2023-06-22T13:40:01;14.13;;;9.25;;
79212;SDS011;68639;52.380;9.822;2023-06-22T13:42:30;12.07;;;10.07;;
79212;SDS011;68639;52.380;9.822;2023-06-22T13:44:55;12.23;;;10.05;;
79212;SDS011;68639;52.380;9.822;2023-06-22T13:47:20;13.17;;;10.50;;
79212;SDS011;68639;52.380;9.822;2023-06-22T13:49:45;13.52;;;10.30;;
79212;SDS011;68639;52.380;9.822;2023-06-22T13:52:11;16.17;;;10.40;;
79212;SDS011;68639;52.380;9.822;2023-06-22T13:54:37;15.07;;;10.40;;
79212;SDS011;68639;52.380;9.822;2023-06-22T13:57:03;15.90;;;11.50;;
79212;SDS011;68639;52.380;9.822;2023-06-22T13:59:28;20.38;;;11.68;;
79212;SDS011;68639;52.380;9.822;2023-06-22T14:01:53;12.63;;;11.32;;
79212;SDS011;68639;52.380;9.822;2023-06-22T14:04:18;17.88;;;11.73;;
79212;SDS011;68639;52.380;9.822;2023-06-22T14:06:44;14.47;;;11.03;;
79212;SDS011;68639;52.380;9.822;2023-06-22T14:09:09;13.37;;;11.70;;
79212;SDS011;68639;52.380;9.822;2023-06-22T14:11:34;11.90;;;10.70;;
79212;SDS011;68639;52.380;9.822;2023-06-22T14:13:59;14.60;;;11.15;;
79212;SDS011;68639;52.380;9.822;2023-06-22T14:16:25;16.37;;;10.80;;
79212;SDS011;68639;52.380;9.822;2023-06-22T14:18:50;16.45;;;13.90;;
79212;SDS011;68639;52.380;9.822;2023-06-22T14:21:15;19.10;;;15.20;;
79212;SDS011;68639;52.380;9.822;2023-06-22T14:23:40;18.95;;;16.17;;
79212;SDS011;68639;52.380;9.822;2023-06-22T14:26:05;17.90;;;16.10;;
79212;SDS011;68639;52.380;9.822;2023-06-22T14:28:31;17.30;;;15.20;;
79212;SDS011;68639;52.380;9.822;2023-06-22T14:30:56;17.83;;;15.57;;
79212;SDS011;68639;52.380;9.822;2023-06-22T14:33:21;17.27;;;15.15;;
79212;SDS011;68639;52.380;9.822;2023-06-22T14:35:47;18.08;;;14.45;;